Time;durP1;ratioP1;P1;durP2;ratioP2;P2;SDS_P1;SDS_P2;PMS_P1;PMS_P2;Temp;Humidity;BMP_temperature;BMP_pressure;BME280_temperature;BME280_humidity;BME280_pressure;Samples;Min_cycle;Max_cycle;Signal;HPM_P1;HPM_P2
2021/12/17 00:01:15;;;;;;;;;;;7.70;99.90;;;;;;5031223;28;19920;-81
2021/12/17 00:03:49;;;;;;;;;;;7.70;99.90;;;;;;5030744;28;19921;-81
2021/12/17 00:06:41;;;;;;;;;;;7.70;99.90;;;;;;5018334;28;20332;-81
2021/12/17 00:09:04;;;;;;;;;;;7.70;99.90;;;;;;5011843;28;19922;-81
2021/12/17 00:11:30;;;;;;;;;;;7.70;99.90;;;;;;5044470;28;20016;-81
2021/12/17 00:13:56;;;;;;;;;;;7.70;99.90;;;;;;5043902;28;19921;-81
2021/12/17 00:16:25;;;;;;;;;;;7.70;99.90;;;;;;5044574;28;19925;-81
2021/12/17 00:48:47;;;;;;;;;;;7.70;99.90;;;;;;5031297;28;19986;-81
2021/12/17 00:53:42;;;;;;;;;;;7.70;99.90;;;;;;5029905;28;19921;-81
2021/12/17 00:56:08;;;;;;;;;;;7.70;99.90;;;;;;5014756;28;20270;-81
2021/12/17 00:58:33;;;;;;;;;;;7.70;99.90;;;;;;5014510;28;19921;-81
2021/12/17 01:00:59;;;;;;;;;;;7.70;99.90;;;;;;5030771;28;19921;-81
2021/12/17 01:03:24;;;;;;;;;;;7.70;99.90;;;;;;5013315;28;20012;-81
2021/12/17 01:05:50;;;;;;;;;;;7.60;99.90;;;;;;5014523;28;19979;-81
2021/12/17 01:08:15;;;;;;;;;;;7.70;99.90;;;;;;5030741;28;19932;-80
2021/12/17 01:10:43;;;;;;;;;;;7.60;99.90;;;;;;5030526;28;19936;-81
2021/12/17 01:13:10;;;;;;;;;;;7.70;99.90;;;;;;5030961;28;19922;-81
2021/12/17 01:15:37;;;;;;;;;;;7.60;99.90;;;;;;5017678;28;19921;-81
2021/12/17 01:18:08;;;;;;;;;;;7.70;99.90;;;;;;5017871;28;20008;-81
2021/12/17 01:23:30;;;;;;;;;;;7.60;99.90;;;;;;5034326;28;20012;-81
2021/12/17 01:36:40;;;;;;;;;;;7.60;99.90;;;;;;5034108;28;19928;-81
2021/12/17 01:44:17;;;;;;;;;;;7.60;99.90;;;;;;5033437;28;19925;-81
2021/12/17 01:46:45;;;;;;;;;;;7.60;99.90;;;;;;5034184;28;19929;-81
2021/12/17 01:59:18;;;;;;;;;;;7.60;99.90;;;;;;5034110;28;20288;-81
2021/12/17 01:59:44;;;;;;;;;;;7.60;99.90;;;;;;5033518;28;19921;-81
2021/12/17 02:02:10;;;;;;;;;;;7.60;99.90;;;;;;5017363;28;19921;-81
2021/12/17 02:04:36;;;;;;;;;;;7.60;99.90;;;;;;5016579;28;20322;-81
2021/12/17 02:07:03;;;;;;;;;;;7.60;99.90;;;;;;5027556;28;19925;-81
2021/12/17 02:10:15;;;;;;;;;;;7.60;99.90;;;;;;4997629;28;19925;-81
2021/12/17 02:31:54;;;;;;;;;;;7.60;99.90;;;;;;4996463;28;19930;-81
2021/12/17 02:34:38;;;;;;;;;;;7.60;99.90;;;;;;5032823;28;19956;-81
2021/12/17 02:37:07;;;;;;;;;;;7.60;99.90;;;;;;5032805;28;19925;-81
2021/12/17 02:47:39;;;;;;;;;;;7.70;99.90;;;;;;5013935;28;20408;-81
2021/12/17 02:50:05;;;;;;;;;;;7.60;99.90;;;;;;5029768;28;19921;-81
2021/12/17 02:52:34;;;;;;;;;;;7.60;99.90;;;;;;5003329;28;19925;-81
2021/12/17 02:55:00;;;;;;;;;;;7.60;99.90;;;;;;5016461;28;19928;-81
2021/12/17 02:57:26;;;;;;;;;;;7.70;99.90;;;;;;5032289;28;19925;-81
2021/12/17 02:59:52;;;;;;;;;;;7.60;99.90;;;;;;5016105;28;19925;-81
2021/12/17 03:02:18;;;;;;;;;;;7.70;99.90;;;;;;5016356;28;19921;-81
2021/12/17 03:04:44;;;;;;;;;;;7.70;99.90;;;;;;5015852;28;19927;-81
2021/12/17 03:07:11;;;;;;;;;;;7.60;99.90;;;;;;5032099;28;20011;-82
2021/12/17 03:12:31;;;;;;;;;;;7.60;99.90;;;;;;5032367;28;19948;-81
2021/12/17 03:15:09;;;;;;;;;;;7.60;99.90;;;;;;5016083;28;19932;-81
2021/12/17 03:25:32;;;;;;;;;;;7.60;99.90;;;;;;5031830;28;19925;-81
2021/12/17 03:27:57;;;;;;;;;;;7.70;99.90;;;;;;5015691;28;20457;-81
2021/12/17 03:30:23;;;;;;;;;;;7.70;99.90;;;;;;5031923;28;20407;-81
2021/12/17 03:32:48;;;;;;;;;;;7.60;99.90;;;;;;5031978;28;20101;-81
2021/12/17 03:35:14;;;;;;;;;;;7.60;99.90;;;;;;5031308;28;19921;-81
2021/12/17 03:37:39;;;;;;;;;;;7.70;99.90;;;;;;5031469;28;19921;-81
2021/12/17 03:40:05;;;;;;;;;;;7.60;99.90;;;;;;5031830;28;19928;-81
2021/12/17 03:42:30;;;;;;;;;;;7.70;99.90;;;;;;5031671;28;19921;-81
2021/12/17 03:44:56;;;;;;;;;;;7.70;99.90;;;;;;5015082;28;19921;-81
2021/12/17 03:47:21;;;;;;;;;;;7.70;99.90;;;;;;5014704;28;19925;-81
2021/12/17 03:49:48;;;;;;;;;;;7.60;99.90;;;;;;5031474;28;19928;-81
2021/12/17 03:52:16;;;;;;;;;;;7.70;99.90;;;;;;5015116;28;19925;-81
2021/12/17 03:54:42;;;;;;;;;;;7.60;99.90;;;;;;5014820;28;20369;-81
2021/12/17 03:57:11;;;;;;;;;;;7.60;99.90;;;;;;5014864;28;19943;-82
2021/12/17 03:59:36;;;;;;;;;;;7.60;99.90;;;;;;5031382;28;19921;-81
2021/12/17 04:02:02;;;;;;;;;;;7.70;99.90;;;;;;5014910;28;20011;-81
2021/12/17 04:04:27;;;;;;;;;;;7.70;99.90;;;;;;5014805;28;19922;-81
2021/12/17 04:06:53;;;;;;;;;;;7.70;99.90;;;;;;5014343;28;19928;-81
2021/12/17 04:09:21;;;;;;;;;;;7.60;99.90;;;;;;5014991;28;19921;-81
2021/12/17 04:11:47;;;;;;;;;;;7.60;99.90;;;;;;5014767;28;19976;-81
2021/12/17 04:14:13;;;;;;;;;;;7.70;99.90;;;;;;5014389;28;20074;-81
2021/12/17 04:16:38;;;;;;;;;;;7.60;99.90;;;;;;5014425;28;19921;-81
2021/12/17 04:19:04;;;;;;;;;;;7.60;99.90;;;;;;5031026;28;19964;-81
2021/12/17 04:21:29;;;;;;;;;;;7.60;99.90;;;;;;5031423;28;20285;-81
2021/12/17 04:23:55;;;;;;;;;;;7.60;99.90;;;;;;5030879;28;19921;-81
2021/12/17 04:26:21;;;;;;;;;;;7.60;99.90;;;;;;5014488;28;19988;-81
2021/12/17 04:28:50;;;;;;;;;;;7.60;99.90;;;;;;5014810;28;20309;-81
2021/12/17 04:31:16;;;;;;;;;;;7.60;99.90;;;;;;5031334;28;20297;-80
2021/12/17 04:33:43;;;;;;;;;;;7.60;99.90;;;;;;5030891;28;19931;-81
2021/12/17 04:36:10;;;;;;;;;;;7.50;99.90;;;;;;5030832;28;19921;-81
2021/12/17 04:38:36;;;;;;;;;;;7.60;99.90;;;;;;5031054;28;19928;-81
2021/12/17 04:41:36;;;;;;;;;;;7.60;99.90;;;;;;5014634;28;19925;-80
2021/12/17 04:44:06;;;;;;;;;;;7.50;99.90;;;;;;5030585;28;20405;-80
2021/12/17 04:46:44;;;;;;;;;;;7.50;99.90;;;;;;5014138;28;19925;-80
2021/12/17 05:00:00;;;;;;;;;;;7.50;99.90;;;;;;5034662;28;20025;-81
2021/12/17 05:02:26;;;;;;;;;;;7.60;99.90;;;;;;5018304;28;19921;-80
2021/12/17 05:04:53;;;;;;;;;;;7.50;99.90;;;;;;5017702;28;20293;-80
2021/12/17 05:07:19;;;;;;;;;;;7.50;99.90;;;;;;5034714;28;19936;-80
2021/12/17 05:09:57;;;;;;;;;;;7.60;99.90;;;;;;5018350;28;20348;-80
2021/12/17 05:20:45;;;;;;;;;;;7.50;99.90;;;;;;5034570;28;19927;-80
2021/12/17 05:23:11;;;;;;;;;;;7.50;99.90;;;;;;5018357;28;19986;-80
2021/12/17 05:25:36;;;;;;;;;;;7.50;99.90;;;;;;5034675;28;19921;-80
2021/12/17 05:28:02;;;;;;;;;;;7.50;99.90;;;;;;5034100;28;19925;-80
2021/12/17 05:30:29;;;;;;;;;;;7.50;99.90;;;;;;5017800;28;19921;-80
2021/12/17 05:32:54;;;;;;;;;;;7.50;99.90;;;;;;5034383;28;19928;-80
2021/12/17 05:35:20;;;;;;;;;;;7.40;99.90;;;;;;5017379;28;20311;-80
2021/12/17 05:37:46;;;;;;;;;;;7.50;99.90;;;;;;5017868;28;19960;-80
2021/12/17 05:40:11;;;;;;;;;;;7.50;99.90;;;;;;5017595;28;19932;-80
2021/12/17 05:42:37;;;;;;;;;;;7.50;99.90;;;;;;5017441;28;19921;-81
2021/12/17 05:45:09;;;;;;;;;;;7.50;99.90;;;;;;5033702;28;19975;-80
2021/12/17 05:47:34;;;;;;;;;;;7.50;99.90;;;;;;5017272;28;19933;-80
2021/12/17 05:50:00;;;;;;;;;;;7.50;99.90;;;;;;5034234;28;20081;-79
2021/12/17 05:52:25;;;;;;;;;;;7.40;99.90;;;;;;5033827;28;19932;-80
2021/12/17 05:54:51;;;;;;;;;;;7.50;99.90;;;;;;5016806;28;20405;-80
2021/12/17 05:57:16;;;;;;;;;;;7.50;99.90;;;;;;5017415;28;19944;-80
2021/12/17 05:59:42;;;;;;;;;;;7.40;99.90;;;;;;5032985;28;19925;-80
2021/12/17 06:02:11;;;;;;;;;;;7.50;99.90;;;;;;5017666;28;19928;-80
2021/12/17 06:04:37;;;;;;;;;;;7.50;99.90;;;;;;5016753;28;19925;-80
2021/12/17 06:07:02;;;;;;;;;;;7.50;99.90;;;;;;5017337;28;19925;-81
2021/12/17 06:09:28;;;;;;;;;;;7.50;99.90;;;;;;5033654;28;19928;-79
2021/12/17 06:11:53;;;;;;;;;;;7.50;99.90;;;;;;5033357;28;20227;-80
2021/12/17 06:14:19;;;;;;;;;;;7.50;99.90;;;;;;5016593;28;19921;-80
2021/12/17 06:16:44;;;;;;;;;;;7.50;99.90;;;;;;5017001;28;19921;-80
2021/12/17 06:19:10;;;;;;;;;;;7.50;99.90;;;;;;5016742;28;20019;-80
2021/12/17 06:21:35;;;;;;;;;;;7.50;99.90;;;;;;5016958;28;19921;-80
2021/12/17 06:24:00;;;;;;;;;;;7.50;99.90;;;;;;5016628;28;19920;-80
2021/12/17 06:26:26;;;;;;;;;;;7.50;99.90;;;;;;5016773;28;20386;-80
2021/12/17 06:28:51;;;;;;;;;;;7.50;99.90;;;;;;5033168;28;20349;-80
2021/12/17 06:31:18;;;;;;;;;;;7.50;99.90;;;;;;5032907;28;19925;-80
2021/12/17 06:33:43;;;;;;;;;;;7.50;99.90;;;;;;5016113;28;19921;-79
2021/12/17 06:36:09;;;;;;;;;;;7.50;99.90;;;;;;5016487;28;19925;-79
2021/12/17 06:38:34;;;;;;;;;;;7.40;99.90;;;;;;5032726;28;19921;-79
2021/12/17 06:41:00;;;;;;;;;;;7.40;99.90;;;;;;5032425;28;19975;-80
2021/12/17 06:43:33;;;;;;;;;;;7.40;99.90;;;;;;5015975;28;20119;-79
2021/12/17 06:46:15;;;;;;;;;;;7.30;99.90;;;;;;5016675;28;20359;-80
2021/12/17 06:48:40;;;;;;;;;;;7.30;99.90;;;;;;5016161;28;19921;-80
2021/12/17 07:10:16;;;;;;;;;;;7.20;99.90;;;;;;5031542;28;19932;-79
2021/12/17 07:23:14;;;;;;;;;;;7.20;99.90;;;;;;5032369;28;19921;-79
2021/12/17 07:28:09;;;;;;;;;;;7.20;99.90;;;;;;5015425;28;19944;-80
2021/12/17 07:28:57;;;;;;;;;;;7.30;99.90;;;;;;5031535;28;19975;-80
2021/12/17 07:34:01;;;;;;;;;;;7.20;99.90;;;;;;5031842;28;19925;-80
2021/12/17 07:36:36;;;;;;;;;;;7.30;99.90;;;;;;5015485;28;20008;-80
2021/12/17 07:39:02;;;;;;;;;;;7.30;99.90;;;;;;5015230;28;20012;-80
2021/12/17 07:41:28;;;;;;;;;;;7.30;99.90;;;;;;5015512;28;20359;-80
2021/12/17 07:43:56;;;;;;;;;;;7.30;99.90;;;;;;5031107;28;19998;-84
2021/12/17 07:46:22;;;;;;;;;;;7.30;99.90;;;;;;5014760;28;19929;-80
2021/12/17 07:48:49;;;;;;;;;;;7.30;99.90;;;;;;5029845;28;20016;-80
2021/12/17 07:51:16;;;;;;;;;;;7.20;99.90;;;;;;5014940;28;19929;-80
2021/12/17 07:53:41;;;;;;;;;;;7.30;99.90;;;;;;5031183;28;19921;-81
2021/12/17 07:56:08;;;;;;;;;;;7.20;99.90;;;;;;5015214;28;19978;-82
2021/12/17 07:58:34;;;;;;;;;;;7.30;99.90;;;;;;5015250;28;19928;-83
2021/12/17 08:00:59;;;;;;;;;;;7.30;99.90;;;;;;5014488;28;19921;-82
2021/12/17 08:03:25;;;;;;;;;;;7.30;99.90;;;;;;5013377;28;20373;-83
2021/12/17 08:05:51;;;;;;;;;;;7.30;99.90;;;;;;5014173;28;19939;-82
2021/12/17 08:08:17;;;;;;;;;;;7.30;99.90;;;;;;5031157;28;20047;-82
2021/12/17 08:10:42;;;;;;;;;;;7.30;99.90;;;;;;5014253;28;20435;-82
2021/12/17 08:13:13;;;;;;;;;;;7.30;99.90;;;;;;5014760;28;19927;-82
2021/12/17 08:15:47;;;;;;;;;;;7.30;99.90;;;;;;5015003;28;19971;-81
2021/12/17 08:18:42;;;;;;;;;;;7.40;99.90;;;;;;5014156;28;19979;-82
2021/12/17 08:31:28;;;;;;;;;;;7.50;99.90;;;;;;5030670;28;19925;-83
2021/12/17 08:33:53;;;;;;;;;;;7.50;99.90;;;;;;5014637;28;20369;-83
2021/12/17 08:36:19;;;;;;;;;;;7.60;99.90;;;;;;5030954;28;19964;-83
2021/12/17 08:38:45;;;;;;;;;;;7.60;99.90;;;;;;5014649;28;19964;-83
2021/12/17 08:41:11;;;;;;;;;;;7.60;99.90;;;;;;5030774;28;20372;-82
2021/12/17 08:43:38;;;;;;;;;;;7.60;99.90;;;;;;5013000;28;21176;-82
2021/12/17 08:46:04;;;;;;;;;;;7.60;99.90;;;;;;5012760;28;19929;-82
2021/12/17 08:48:29;;;;;;;;;;;7.70;99.90;;;;;;5014151;28;20444;-82
2021/12/17 08:50:57;;;;;;;;;;;7.70;99.90;;;;;;5013881;28;19921;-84
2021/12/17 08:53:22;;;;;;;;;;;7.70;99.90;;;;;;5013739;28;20459;-83
2021/12/17 08:55:48;;;;;;;;;;;7.70;99.90;;;;;;5207627;23;19925;-77
2021/12/17 08:58:43;;;;;;;;;;;7.70;99.90;;;;;;4972475;28;19928;-78
2021/12/17 09:01:46;;;;;;;;;;;7.70;99.90;;;;;;4949321;28;19926;-77
2021/12/17 09:07:33;;;;;;;;;;;7.80;99.90;;;;;;5069009;28;19979;-77
2021/12/17 09:13:56;;;;;;;;;;;7.90;99.90;;;;;;5052480;28;20589;-78
2021/12/17 09:17:16;;;;;;;;;;;;;;;;;;;;;
2021/12/17 09:19:55;;;;;;;;;;;7.90;99.90;;;;;;5032668;28;19978;-77
2021/12/17 09:26:15;;;;;;;;;;;7.90;99.90;;;;;;5116042;23;20299;-77
2021/12/17 09:29:21;;;;;;;;;;;;;;;;;;;;;
2021/12/17 09:32:21;;;;;;;;;;;8.00;99.90;;;;;;5090003;28;20380;-77
2021/12/17 09:41:19;;;;;;;;;;;8.10;99.90;;;;;;5049884;22;19925;-80
2021/12/17 09:43:45;;;;;;;;;;;8.10;99.90;;;;;;5037428;28;19925;-81
2021/12/17 09:46:10;;;;;;;;;;;8.20;99.90;;;;;;5053563;28;20012;-80
2021/12/17 09:48:36;;;;;;;;;;;8.20;99.90;;;;;;5037055;28;20407;-80
2021/12/17 09:51:04;;;;;;;;;;;8.20;99.90;;;;;;5053966;28;19988;-80
2021/12/17 09:53:30;;;;;;;;;;;8.20;99.90;;;;;;5053452;28;19920;-81
2021/12/17 09:55:56;;;;;;;;;;;8.30;99.90;;;;;;5036844;28;19928;-81
2021/12/17 09:58:21;;;;;;;;;;;8.40;99.90;;;;;;5036973;28;19920;-82
2021/12/17 10:00:47;;;;;;;;;;;8.30;99.90;;;;;;5036837;28;20456;-80
2021/12/17 10:03:12;;;;;;;;;;;8.40;99.90;;;;;;5036869;28;19925;-80
2021/12/17 10:05:39;;;;;;;;;;;8.40;99.90;;;;;;5036756;28;19921;-80
2021/12/17 10:08:19;;;;;;;;;;;8.40;99.90;;;;;;5036688;28;19955;-80
2021/12/17 10:10:46;;;;;;;;;;;8.40;99.90;;;;;;5036649;28;19925;-80
2021/12/17 10:13:18;;;;;;;;;;;8.40;99.90;;;;;;5036473;28;19925;-82
2021/12/17 10:15:45;;;;;;;;;;;8.50;99.90;;;;;;5036623;28;19968;-80
2021/12/17 10:18:11;;;;;;;;;;;8.50;99.90;;;;;;5053061;28;19974;-80
2021/12/17 10:20:41;;;;;;;;;;;8.50;99.90;;;;;;5053065;28;20287;-80
2021/12/17 10:23:09;;;;;;;;;;;8.50;99.90;;;;;;5052860;28;19921;-80
2021/12/17 10:25:36;;;;;;;;;;;8.50;99.90;;;;;;5036455;28;19920;-82
2021/12/17 10:28:04;;;;;;;;;;;8.50;99.90;;;;;;5053090;28;20366;-81
2021/12/17 10:30:31;;;;;;;;;;;8.60;99.90;;;;;;5052742;28;20384;-82
2021/12/17 10:32:58;;;;;;;;;;;8.60;99.90;;;;;;5036246;28;19936;-83
2021/12/17 10:35:25;;;;;;;;;;;8.70;99.90;;;;;;5036065;28;19921;-79
2021/12/17 10:37:56;;;;;;;;;;;8.70;99.90;;;;;;5052413;28;19921;-79
2021/12/17 10:40:30;;;;;;;;;;;8.70;99.90;;;;;;5052687;28;20062;-80
2021/12/17 10:43:08;;;;;;;;;;;8.80;99.90;;;;;;5052597;28;19921;-82
2021/12/17 10:45:35;;;;;;;;;;;8.80;99.90;;;;;;5036065;28;19928;-83
2021/12/17 10:48:22;;;;;;;;;;;8.80;99.90;;;;;;5035852;28;19921;-82
2021/12/17 10:50:48;;;;;;;;;;;8.80;99.90;;;;;;5052389;28;20016;-80
2021/12/17 10:53:14;;;;;;;;;;;8.80;99.90;;;;;;5051217;28;19921;-81
2021/12/17 10:55:43;;;;;;;;;;;8.80;99.90;;;;;;5038482;28;19920;-81
2021/12/17 10:58:09;;;;;;;;;;;8.80;99.90;;;;;;5033122;28;20464;-83
2021/12/17 11:00:41;;;;;;;;;;;8.90;99.90;;;;;;5051983;28;19925;-82
2021/12/17 11:03:07;;;;;;;;;;;8.90;99.90;;;;;;5051980;28;19927;-81
2021/12/17 11:05:33;;;;;;;;;;;8.90;99.90;;;;;;5035835;28;19921;-81
2021/12/17 11:07:58;;;;;;;;;;;9.00;99.90;;;;;;5052438;28;20011;-80
2021/12/17 11:10:31;;;;;;;;;;;9.00;99.90;;;;;;5052369;28;19970;-81
2021/12/17 11:12:56;;;;;;;;;;;9.00;99.90;;;;;;5051751;28;19964;-81
2021/12/17 11:15:26;;;;;;;;;;;9.00;99.90;;;;;;5035680;28;20356;-82
2021/12/17 11:17:53;;;;;;;;;;;9.00;99.90;;;;;;5035855;28;19928;-81
2021/12/17 11:20:23;;;;;;;;;;;9.10;99.90;;;;;;5051816;28;19927;-81
2021/12/17 11:22:50;;;;;;;;;;;9.10;99.90;;;;;;5035444;28;19921;-82
2021/12/17 11:25:17;;;;;;;;;;;9.10;99.90;;;;;;5054157;28;19921;-83
2021/12/17 11:27:42;;;;;;;;;;;9.10;99.90;;;;;;5038913;28;19932;-82
2021/12/17 11:30:10;;;;;;;;;;;9.10;99.90;;;;;;5034994;28;19921;-82
2021/12/17 11:32:35;;;;;;;;;;;9.10;99.90;;;;;;5034910;28;19925;-82
2021/12/17 11:35:02;;;;;;;;;;;9.20;99.90;;;;;;5055840;28;19931;-82
2021/12/17 11:37:28;;;;;;;;;;;9.20;99.90;;;;;;5040052;28;20008;-81
2021/12/17 11:39:55;;;;;;;;;;;9.20;99.90;;;;;;5034798;28;19956;-82
2021/12/17 11:42:39;;;;;;;;;;;9.20;99.90;;;;;;5051476;28;19925;-82
2021/12/17 11:45:25;;;;;;;;;;;9.30;99.90;;;;;;5032104;28;20295;-82
2021/12/17 11:48:10;;;;;;;;;;;9.30;99.90;;;;;;5015204;28;19921;-82
2021/12/17 11:50:35;;;;;;;;;;;9.30;99.90;;;;;;5018267;28;19921;-82
2021/12/17 11:53:14;;;;;;;;;;;9.30;99.90;;;;;;5034422;28;19931;-82
2021/12/17 11:55:39;;;;;;;;;;;9.30;99.90;;;;;;5051864;28;20368;-83
2021/12/17 11:58:10;;;;;;;;;;;9.40;99.90;;;;;;5034204;28;19920;-82
2021/12/17 12:00:38;;;;;;;;;;;9.40;99.90;;;;;;5034616;28;19921;-82
2021/12/17 12:03:20;;;;;;;;;;;9.50;99.90;;;;;;5034261;28;19921;-82
2021/12/17 12:05:47;;;;;;;;;;;9.50;99.90;;;;;;5034888;28;20011;-82
2021/12/17 12:08:25;;;;;;;;;;;9.50;99.90;;;;;;5034603;28;19925;-83
2021/12/17 12:11:03;;;;;;;;;;;9.50;99.90;;;;;;5050283;28;19975;-82
2021/12/17 12:13:35;;;;;;;;;;;9.70;99.90;;;;;;5031108;28;19929;-82
2021/12/17 12:16:02;;;;;;;;;;;9.70;99.90;;;;;;5031287;28;19925;-82
2021/12/17 12:18:37;;;;;;;;;;;9.70;99.90;;;;;;5018123;28;20261;-83
2021/12/17 12:21:03;;;;;;;;;;;9.70;99.90;;;;;;5034138;28;19962;-82
2021/12/17 12:23:38;;;;;;;;;;;9.60;99.90;;;;;;5034359;28;19921;-82
2021/12/17 12:26:11;;;;;;;;;;;9.60;99.90;;;;;;5034401;28;19920;-83
2021/12/17 12:28:56;;;;;;;;;;;9.70;99.90;;;;;;5050905;28;19966;-82
2021/12/17 12:31:31;;;;;;;;;;;9.80;99.90;;;;;;5034106;28;19925;-83
2021/12/17 12:34:00;;;;;;;;;;;9.80;99.90;;;;;;5039669;28;20307;-82
2021/12/17 12:36:44;;;;;;;;;;;9.90;99.90;;;;;;5054113;28;19927;-83
2021/12/17 12:39:12;;;;;;;;;;;9.90;99.90;;;;;;5050672;28;19964;-83
2021/12/17 12:41:45;;;;;;;;;;;9.80;99.90;;;;;;5039697;28;19920;-85
2021/12/17 12:44:10;;;;;;;;;;;9.80;99.90;;;;;;5016060;28;20063;-85
2021/12/17 12:46:56;;;;;;;;;;;9.80;99.90;;;;;;5014750;28;20004;-86
2021/12/17 12:49:40;;;;;;;;;;;9.80;99.90;;;;;;5030383;28;20356;-86
2021/12/17 12:52:20;;;;;;;;;;;9.80;99.90;;;;;;5034232;28;19925;-86
2021/12/17 12:54:50;;;;;;;;;;;9.80;99.90;;;;;;5034157;28;20293;-86
2021/12/17 12:57:25;;;;;;;;;;;9.70;99.90;;;;;;5034197;28;20368;-86
2021/12/17 12:59:54;;;;;;;;;;;9.60;99.90;;;;;;5034316;28;20294;-86
2021/12/17 13:02:26;;;;;;;;;;;9.60;99.90;;;;;;5034470;28;19970;-86
2021/12/17 13:04:52;;;;;;;;;;;9.60;99.90;;;;;;5033830;28;19970;-86
2021/12/17 13:07:29;;;;;;;;;;;9.70;99.90;;;;;;5034184;28;19960;-85
2021/12/17 13:09:54;;;;;;;;;;;9.60;99.90;;;;;;5037797;28;19924;-86
2021/12/17 13:12:23;;;;;;;;;;;9.70;99.90;;;;;;5037987;28;19932;-86
2021/12/17 13:14:49;;;;;;;;;;;9.60;99.90;;;;;;5037764;28;19967;-85
2021/12/17 13:20:04;;;;;;;;;;;9.60;99.90;;;;;;5038154;28;19925;-86
2021/12/17 13:22:58;;;;;;;;;;;9.50;99.90;;;;;;5053773;28;19925;-86
2021/12/17 13:25:27;;;;;;;;;;;9.50;99.90;;;;;;5037331;28;19921;-86
2021/12/17 13:27:54;;;;;;;;;;;9.50;99.90;;;;;;5038080;28;20292;-87
2021/12/17 13:30:23;;;;;;;;;;;9.60;99.90;;;;;;5054493;28;19943;-85
2021/12/17 13:32:50;;;;;;;;;;;9.60;99.90;;;;;;5037236;28;20059;-85
2021/12/17 13:35:17;;;;;;;;;;;9.60;99.90;;;;;;5037957;28;19921;-85
2021/12/17 13:37:43;;;;;;;;;;;9.60;99.90;;;;;;5034090;28;20304;-86
2021/12/17 13:40:10;;;;;;;;;;;9.60;99.90;;;;;;5048907;28;19920;-84
2021/12/17 13:42:37;;;;;;;;;;;9.50;99.90;;;;;;5057330;28;19920;-85
2021/12/17 13:45:07;;;;;;;;;;;9.50;99.90;;;;;;5057479;28;19920;-84
2021/12/17 13:47:37;;;;;;;;;;;9.50;99.90;;;;;;5057225;28;19927;-84
2021/12/17 13:50:29;;;;;;;;;;;9.50;99.90;;;;;;5036978;28;19925;-84
2021/12/17 13:53:00;;;;;;;;;;;9.50;99.90;;;;;;5033957;28;20020;-85
2021/12/17 13:55:27;;;;;;;;;;;9.40;99.90;;;;;;5036916;28;19925;-84
2021/12/17 13:57:52;;;;;;;;;;;9.40;99.90;;;;;;5037220;28;19920;-84
2021/12/17 14:00:20;;;;;;;;;;;9.40;99.90;;;;;;5036995;28;19921;-84
2021/12/17 14:02:46;;;;;;;;;;;9.40;99.90;;;;;;5036771;28;19920;-86
2021/12/17 14:05:16;;;;;;;;;;;9.40;99.90;;;;;;5037108;28;19974;-82
2021/12/17 14:07:47;;;;;;;;;;;9.40;99.90;;;;;;5037007;28;19925;-85
2021/12/17 14:10:17;;;;;;;;;;;9.40;99.90;;;;;;5036833;28;19961;-82
2021/12/17 14:12:43;;;;;;;;;;;9.40;99.90;;;;;;5053104;28;19929;-84
2021/12/17 14:15:11;;;;;;;;;;;9.30;99.90;;;;;;5029400;28;19921;-83
2021/12/17 14:17:38;;;;;;;;;;;9.40;99.90;;;;;;5033525;28;19928;-83
2021/12/17 14:20:10;;;;;;;;;;;9.40;99.90;;;;;;5016244;28;19975;-83
2021/12/17 14:22:38;;;;;;;;;;;9.40;99.90;;;;;;5036269;28;19928;-85
2021/12/17 14:25:23;;;;;;;;;;;9.30;99.90;;;;;;5038849;28;19928;-85
2021/12/17 14:27:49;;;;;;;;;;;9.30;99.90;;;;;;5053381;28;19966;-83
2021/12/17 14:30:15;;;;;;;;;;;9.30;99.90;;;;;;5036631;28;19924;-83
2021/12/17 14:32:41;;;;;;;;;;;9.30;99.90;;;;;;5036522;28;19932;-83
2021/12/17 14:35:07;;;;;;;;;;;9.30;99.90;;;;;;5036262;28;19936;-83
2021/12/17 14:37:49;;;;;;;;;;;9.30;99.90;;;;;;5036056;28;20296;-83
2021/12/17 14:40:32;;;;;;;;;;;9.20;99.90;;;;;;5036336;28;19967;-85
2021/12/17 14:42:58;;;;;;;;;;;9.20;99.90;;;;;;5036121;28;19920;-83
2021/12/17 14:45:39;;;;;;;;;;;9.20;99.90;;;;;;5036041;28;19920;-81
2021/12/17 14:48:14;;;;;;;;;;;9.20;99.90;;;;;;5036049;28;20384;-83
2021/12/17 15:02:26;;;;;;;;;;;9.10;99.90;;;;;;5052946;28;19921;-80
2021/12/17 15:04:47;;;;;;;;;;;9.00;99.90;;;;;;5051853;28;19921;-83
2021/12/17 15:07:13;;;;;;;;;;;9.00;99.90;;;;;;5052051;28;20407;-83
2021/12/17 15:09:43;;;;;;;;;;;9.00;99.90;;;;;;5036053;28;20394;-83
2021/12/17 15:12:37;;;;;;;;;;;9.00;99.90;;;;;;5035435;28;20384;-83
2021/12/17 15:15:05;;;;;;;;;;;9.00;99.90;;;;;;5037357;28;19943;-83
2021/12/17 15:17:32;;;;;;;;;;;8.90;99.90;;;;;;5046740;28;19921;-83
2021/12/17 15:19:57;;;;;;;;;;;8.90;99.90;;;;;;5065299;28;20359;-83
2021/12/17 15:22:23;;;;;;;;;;;8.90;99.90;;;;;;5059801;28;19928;-83
2021/12/17 15:24:48;;;;;;;;;;;8.90;99.90;;;;;;5034272;28;19929;-82
2021/12/17 15:27:14;;;;;;;;;;;8.90;99.90;;;;;;5037020;28;20015;-85
2021/12/17 15:29:40;;;;;;;;;;;8.90;99.90;;;;;;5038533;28;19924;-85
2021/12/17 15:32:06;;;;;;;;;;;8.90;99.90;;;;;;5020840;28;20011;-85
2021/12/17 15:34:31;;;;;;;;;;;8.90;99.90;;;;;;5034991;28;20323;-85
2021/12/17 15:36:58;;;;;;;;;;;8.80;99.90;;;;;;5052046;28;19929;-85
2021/12/17 15:39:24;;;;;;;;;;;8.80;99.90;;;;;;5051309;28;19960;-85
2021/12/17 15:41:50;;;;;;;;;;;8.80;99.90;;;;;;5079812;22;19929;-76
2021/12/17 15:44:15;;;;;;;;;;;8.80;99.90;;;;;;5052930;28;19946;-76
2021/12/17 15:46:41;;;;;;;;;;;8.80;99.90;;;;;;5053128;28;19921;-76
2021/12/17 15:49:06;;;;;;;;;;;8.80;99.90;;;;;;5051085;28;20449;-76
2021/12/17 15:51:32;;;;;;;;;;;8.80;99.90;;;;;;5040399;28;20047;-79
2021/12/17 15:53:58;;;;;;;;;;;8.80;99.90;;;;;;5023323;28;20351;-77
2021/12/17 15:56:24;;;;;;;;;;;8.80;99.90;;;;;;5016361;28;19943;-77
2021/12/17 15:58:49;;;;;;;;;;;8.70;99.90;;;;;;5035074;28;20353;-77
2021/12/17 16:01:18;;;;;;;;;;;8.80;99.90;;;;;;5017683;28;19921;-77
2021/12/17 16:03:47;;;;;;;;;;;8.80;99.90;;;;;;5018498;28;20015;-76
2021/12/17 16:06:13;;;;;;;;;;;8.70;99.90;;;;;;5034155;28;20381;-76
2021/12/17 16:08:44;;;;;;;;;;;8.70;99.90;;;;;;5017891;28;19927;-77
2021/12/17 16:16:53;;;;;;;;;;;8.70;99.90;;;;;;5034217;28;20388;-78
2021/12/17 16:22:03;;;;;;;;;;;8.70;99.90;;;;;;5041273;28;19929;-77
2021/12/17 16:24:29;;;;;;;;;;;8.70;99.90;;;;;;5014423;28;19921;-76
2021/12/17 16:26:54;;;;;;;;;;;8.60;99.90;;;;;;5014457;28;19921;-77
2021/12/17 16:29:20;;;;;;;;;;;8.60;99.90;;;;;;5014880;28;20389;-77
2021/12/17 16:31:46;;;;;;;;;;;8.70;99.90;;;;;;5016980;28;19987;-77
2021/12/17 16:34:12;;;;;;;;;;;8.70;99.90;;;;;;5033999;28;19963;-77
2021/12/17 16:36:39;;;;;;;;;;;8.70;99.90;;;;;;5034220;28;19960;-77
2021/12/17 16:39:06;;;;;;;;;;;8.70;99.90;;;;;;5034573;28;20347;-77
2021/12/17 16:41:31;;;;;;;;;;;8.70;99.90;;;;;;5017360;28;19921;-76
2021/12/17 16:44:03;;;;;;;;;;;8.60;99.90;;;;;;5033283;28;19947;-77
2021/12/17 16:49:05;;;;;;;;;;;8.70;99.90;;;;;;5032908;28;19928;-76
2021/12/17 16:51:31;;;;;;;;;;;8.70;99.90;;;;;;5016827;28;20438;-76
2021/12/17 16:53:57;;;;;;;;;;;8.70;99.90;;;;;;5033804;28;19929;-77
2021/12/17 16:56:23;;;;;;;;;;;8.70;99.90;;;;;;5033650;28;19927;-78
2021/12/17 16:58:49;;;;;;;;;;;8.70;99.90;;;;;;5033672;28;19928;-78
2021/12/17 17:01:14;;;;;;;;;;;8.60;99.90;;;;;;5034461;28;20334;-79
2021/12/17 17:03:40;;;;;;;;;;;8.60;99.90;;;;;;5034718;28;19921;-79
2021/12/17 17:06:06;;;;;;;;;;;8.60;99.90;;;;;;5035014;28;19982;-79
2021/12/17 17:08:31;;;;;;;;;;;8.60;99.90;;;;;;5035146;28;20007;-79
2021/12/17 17:11:01;;;;;;;;;;;8.60;99.90;;;;;;5034597;28;19920;-79
2021/12/17 17:13:27;;;;;;;;;;;8.60;99.90;;;;;;5017518;28;19924;-79
2021/12/17 17:15:52;;;;;;;;;;;8.60;99.90;;;;;;5018651;28;20511;-78
2021/12/17 17:18:18;;;;;;;;;;;8.60;99.90;;;;;;5035188;28;19928;-79
2021/12/17 17:20:44;;;;;;;;;;;8.60;99.90;;;;;;5034776;28;19921;-80
2021/12/17 17:23:09;;;;;;;;;;;8.60;99.90;;;;;;5035176;28;19920;-79
2021/12/17 17:25:35;;;;;;;;;;;8.60;99.90;;;;;;5035085;28;20397;-78
2021/12/17 17:28:05;;;;;;;;;;;8.60;99.90;;;;;;5019409;28;19921;-79
2021/12/17 17:30:30;;;;;;;;;;;8.60;99.90;;;;;;5018123;28;20373;-78
2021/12/17 17:32:56;;;;;;;;;;;8.60;99.90;;;;;;5035326;28;19944;-78
2021/12/17 17:35:21;;;;;;;;;;;8.60;99.90;;;;;;5035939;28;19968;-79
2021/12/17 17:37:47;;;;;;;;;;;8.60;99.90;;;;;;5034521;28;19925;-78
2021/12/17 17:40:12;;;;;;;;;;;8.60;99.90;;;;;;5017953;28;19928;-79
2021/12/17 17:42:38;;;;;;;;;;;8.50;99.90;;;;;;5033587;28;20292;-76
2021/12/17 17:45:05;;;;;;;;;;;8.60;99.90;;;;;;5017652;28;19928;-78
2021/12/17 17:47:30;;;;;;;;;;;8.50;99.90;;;;;;5018685;28;20450;-78
2021/12/17 17:49:56;;;;;;;;;;;8.50;99.90;;;;;;5033811;28;19925;-78
2021/12/17 17:52:21;;;;;;;;;;;8.60;99.90;;;;;;5033962;28;19982;-79
2021/12/17 17:54:47;;;;;;;;;;;8.50;99.90;;;;;;5016998;28;20433;-77
2021/12/17 17:57:13;;;;;;;;;;;8.50;99.90;;;;;;5021163;28;20435;-77
2021/12/17 17:59:39;;;;;;;;;;;8.50;99.90;;;;;;5037033;28;19921;-78
2021/12/17 18:02:05;;;;;;;;;;;8.50;99.90;;;;;;5020339;28;20271;-78
2021/12/17 18:04:31;;;;;;;;;;;8.50;99.90;;;;;;5040684;28;19943;-79